Wolf Creek Observed Data For Previous 48 Hours

Caption
Day and Hour Reservoir Elevation (behind dam)* Tailwater Elevation (below dam)* Average Hourly Discharge*
7/24/2016 1 AM CDT 717.40 544.40 20
7/24/2016 2 AM CDT 717.38 543.70 20
7/24/2016 3 AM CDT 717.38 543.20 20
7/24/2016 4 AM CDT 717.38 542.90 20
7/24/2016 5 AM CDT 717.37 542.70 20
7/24/2016 6 AM CDT 717.37 542.40 20
7/24/2016 7 AM CDT 717.37 542.27 20
7/24/2016 8 AM CDT 717.37 542.27 20
7/24/2016 9 AM CDT 717.37 545.67 3,470
7/24/2016 10 AM CDT 717.37 546.27 3,480
7/24/2016 11 AM CDT 717.35 546.45 3,480
7/24/2016 12 PM CDT 717.35 546.55 3,480
7/24/2016 1 PM CDT 717.33 548.83 6,980
7/24/2016 2 PM CDT 717.33 550.83 10,520
7/24/2016 3 PM CDT 717.31 553.01 14,180
7/24/2016 4 PM CDT 717.29 556.89 21,440
7/24/2016 5 PM CDT 717.28 557.38 21,440
7/24/2016 6 PM CDT 717.25 558.55 21,740
7/24/2016 7 PM CDT 717.23 556.53 14,260
7/24/2016 8 PM CDT 717.21 554.91 10,670
7/24/2016 9 PM CDT 717.19 551.19 3,530
7/24/2016 10 PM CDT 717.18 550.08 3,520
7/24/2016 11 PM CDT 717.18 547.78 20
7/25/2016 12 AM CDT 717.18 546.68 20
7/25/2016 1 AM CDT 717.18 545.58 20
7/25/2016 2 AM CDT 717.18 544.58 20
7/25/2016 3 AM CDT 717.18 543.88 20
7/25/2016 4 AM CDT 717.18 543.38 20
7/25/2016 5 AM CDT 717.18 542.98 20
7/25/2016 6 AM CDT 717.18 542.68 20
7/25/2016 7 AM CDT 717.18 542.28 20
7/25/2016 8 AM CDT 717.18 542.28 20
7/25/2016 9 AM CDT 717.18 542.28 20
7/25/2016 10 AM CDT 717.18 545.58 3,470
7/25/2016 11 AM CDT 717.15 548.85 7,000
7/25/2016 12 PM CDT 717.12 553.02 14,180
7/25/2016 1 PM CDT 717.11 556.81 21,440
7/25/2016 2 PM CDT 719.09 557.38 21,440
7/25/2016 3 PM CDT 717.06 557.76 21,740
7/25/2016 4 PM CDT 717.06 558.26 21,740
7/25/2016 5 PM CDT 717.04 558.24 21,740
7/25/2016 6 PM CDT 717.02 558.52 21,740
7/25/2016 7 PM CDT 716.98 557.58 18,120
7/25/2016 8 PM CDT 716.95 556.95 14,300
7/25/2016 9 PM CDT 716.92 555.22 10,670
7/25/2016 10 PM CDT 716.90 551.90 3,550
7/25/2016 11 PM CDT 716.88 550.58 3,530
7/26/2016 12 AM CDT 716.88 547.98 20

Elevations are in feet above sea level. Discharges are in cubic feet per second and are reported at the end of the hour.